sensor_id;sensor_type;location;lat;lon;timestamp;pressure;altitude;pressure_sealevel;temperature;humidity
73151;BME280;61354;50.758;6.106;2023-04-30T00:00:14;99812.84;;;7.91;100.00
73151;BME280;61354;50.758;6.106;2023-04-30T00:02:40;99817.75;;;7.94;100.00
73151;BME280;61354;50.758;6.106;2023-04-30T00:05:05;99815.47;;;8.05;100.00
73151;BME280;61354;50.758;6.106;2023-04-30T00:07:31;99813.19;;;7.98;100.00
73151;BME280;61354;50.758;6.106;2023-04-30T00:09:57;99817.44;;;8.21;100.00
73151;BME280;61354;50.758;6.106;2023-04-30T00:12:22;99818.56;;;8.12;100.00
73151;BME280;61354;50.758;6.106;2023-04-30T00:14:48;99814.81;;;7.99;100.00
73151;BME280;61354;50.758;6.106;2023-04-30T00:17:14;99806.03;;;7.97;100.00
73151;BME280;61354;50.758;6.106;2023-04-30T00:19:40;99806.84;;;8.15;100.00
73151;BME280;61354;50.758;6.106;2023-04-30T00:22:07;99804.56;;;8.17;100.00
73151;BME280;61354;50.758;6.106;2023-04-30T00:24:32;99808.16;;;8.09;100.00
73151;BME280;61354;50.758;6.106;2023-04-30T00:26:58;99811.56;;;8.06;100.00
73151;BME280;61354;50.758;6.106;2023-04-30T00:29:24;99817.41;;;8.04;100.00
73151;BME280;61354;50.758;6.106;2023-04-30T00:31:49;99809.28;;;7.99;100.00
73151;BME280;61354;50.758;6.106;2023-04-30T00:34:16;99805.53;;;8.04;100.00
73151;BME280;61354;50.758;6.106;2023-04-30T00:36:42;99811.22;;;7.98;100.00
73151;BME280;61354;50.758;6.106;2023-04-30T00:39:07;99813.81;;;7.86;100.00
73151;BME280;61354;50.758;6.106;2023-04-30T00:41:34;99815.25;;;7.75;100.00
73151;BME280;61354;50.758;6.106;2023-04-30T00:44:00;99810.41;;;7.81;100.00
73151;BME280;61354;50.758;6.106;2023-04-30T00:46:27;99810.38;;;7.63;100.00
73151;BME280;61354;50.758;6.106;2023-04-30T00:48:52;99813.28;;;7.58;100.00
73151;BME280;61354;50.758;6.106;2023-04-30T00:51:19;99813.91;;;7.46;100.00
73151;BME280;61354;50.758;6.106;2023-04-30T00:53:45;99821.22;;;7.42;100.00
73151;BME280;61354;50.758;6.106;2023-04-30T00:56:12;99819.94;;;7.57;100.00
73151;BME280;61354;50.758;6.106;2023-04-30T00:58:40;99815.41;;;7.61;100.00
73151;BME280;61354;50.758;6.106;2023-04-30T01:01:06;99813.78;;;7.60;100.00
73151;BME280;61354;50.758;6.106;2023-04-30T01:03:32;99812.16;;;7.59;100.00
73151;BME280;61354;50.758;6.106;2023-04-30T01:06:00;99815.19;;;7.40;100.00
73151;BME280;61354;50.758;6.106;2023-04-30T01:08:28;99809.84;;;7.44;100.00
73151;BME280;61354;50.758;6.106;2023-04-30T01:14:26;99805.75;;;7.50;100.00
73151;BME280;61354;50.758;6.106;2023-04-30T01:17:04;99809.66;;;7.40;100.00
73151;BME280;61354;50.758;6.106;2023-04-30T01:19:44;99806.06;;;7.40;100.00
73151;BME280;61354;50.758;6.106;2023-04-30T01:25:07;99806.22;;;7.35;100.00
73151;BME280;61354;50.758;6.106;2023-04-30T01:30:25;99804.25;;;7.27;100.00
73151;BME280;61354;50.758;6.106;2023-04-30T01:32:51;99801.03;;;7.42;100.00
73151;BME280;61354;50.758;6.106;2023-04-30T01:35:17;99793.38;;;7.30;100.00
73151;BME280;61354;50.758;6.106;2023-04-30T01:37:57;99796.81;;;7.36;100.00
73151;BME280;61354;50.758;6.106;2023-04-30T01:40:42;99797.69;;;7.05;100.00
73151;BME280;61354;50.758;6.106;2023-04-30T01:46:24;99804.00;;;7.06;100.00
73151;BME280;61354;50.758;6.106;2023-04-30T01:51:43;99803.25;;;7.22;100.00
73151;BME280;61354;50.758;6.106;2023-04-30T01:54:24;99802.91;;;7.15;100.00
73151;BME280;61354;50.758;6.106;2023-04-30T01:57:05;99805.81;;;7.10;100.00
73151;BME280;61354;50.758;6.106;2023-04-30T01:59:33;99804.81;;;7.06;100.00
73151;BME280;61354;50.758;6.106;2023-04-30T02:01:59;99808.84;;;7.00;100.00
73151;BME280;61354;50.758;6.106;2023-04-30T02:04:25;99813.06;;;6.97;100.00
73151;BME280;61354;50.758;6.106;2023-04-30T02:06:50;99808.78;;;6.91;100.00
73151;BME280;61354;50.758;6.106;2023-04-30T02:09:16;99812.25;;;6.97;100.00
73151;BME280;61354;50.758;6.106;2023-04-30T02:11:41;99813.50;;;6.91;100.00
73151;BME280;61354;50.758;6.106;2023-04-30T02:14:07;99815.50;;;6.99;100.00
73151;BME280;61354;50.758;6.106;2023-04-30T02:16:32;99819.50;;;6.84;100.00
73151;BME280;61354;50.758;6.106;2023-04-30T02:18:58;99821.50;;;6.70;100.00
73151;BME280;61354;50.758;6.106;2023-04-30T02:21:24;99814.28;;;6.83;100.00
73151;BME280;61354;50.758;6.106;2023-04-30T02:23:49;99821.31;;;6.89;100.00
73151;BME280;61354;50.758;6.106;2023-04-30T02:26:15;99817.78;;;6.97;100.00
73151;BME280;61354;50.758;6.106;2023-04-30T02:28:41;99817.78;;;6.97;100.00
73151;BME280;61354;50.758;6.106;2023-04-30T02:31:07;99820.06;;;7.04;100.00
73151;BME280;61354;50.758;6.106;2023-04-30T02:33:32;99813.72;;;7.03;100.00
73151;BME280;61354;50.758;6.106;2023-04-30T02:35:59;99812.88;;;6.94;100.00
73151;BME280;61354;50.758;6.106;2023-04-30T02:38:25;99815.41;;;6.82;100.00
73151;BME280;61354;50.758;6.106;2023-04-30T02:40:50;99812.47;;;6.78;100.00
73151;BME280;61354;50.758;6.106;2023-04-30T02:43:16;99811.38;;;6.88;100.00
73151;BME280;61354;50.758;6.106;2023-04-30T02:45:41;99808.59;;;6.88;100.00
73151;BME280;61354;50.758;6.106;2023-04-30T02:48:07;99807.09;;;6.73;100.00
73151;BME280;61354;50.758;6.106;2023-04-30T02:50:33;99805.47;;;6.72;100.00
73151;BME280;61354;50.758;6.106;2023-04-30T02:52:58;99805.19;;;6.82;100.00
73151;BME280;61354;50.758;6.106;2023-04-30T02:55:24;99804.75;;;6.89;100.00
73151;BME280;61354;50.758;6.106;2023-04-30T02:57:50;99806.19;;;6.86;100.00
73151;BME280;61354;50.758;6.106;2023-04-30T03:00:15;99803.03;;;6.79;100.00
73151;BME280;61354;50.758;6.106;2023-04-30T03:02:42;99797.22;;;6.81;100.00
73151;BME280;61354;50.758;6.106;2023-04-30T03:05:08;99797.63;;;6.65;100.00
73151;BME280;61354;50.758;6.106;2023-04-30T03:07:33;99788.81;;;6.63;100.00
73151;BME280;61354;50.758;6.106;2023-04-30T03:09:59;99794.41;;;6.72;100.00
73151;BME280;61354;50.758;6.106;2023-04-30T03:12:24;99792.44;;;6.64;100.00
73151;BME280;61354;50.758;6.106;2023-04-30T03:14:50;99799.09;;;6.71;100.00
73151;BME280;61354;50.758;6.106;2023-04-30T03:17:16;99791.81;;;6.76;100.00
73151;BME280;61354;50.758;6.106;2023-04-30T03:19:42;99783.50;;;6.67;100.00
73151;BME280;61354;50.758;6.106;2023-04-30T03:22:07;99784.59;;;6.57;100.00
73151;BME280;61354;50.758;6.106;2023-04-30T03:24:33;99785.72;;;6.56;100.00
73151;BME280;61354;50.758;6.106;2023-04-30T03:26:58;99789.44;;;6.52;100.00
73151;BME280;61354;50.758;6.106;2023-04-30T03:29:24;99791.47;;;6.46;100.00
73151;BME280;61354;50.758;6.106;2023-04-30T03:31:49;99784.22;;;6.50;100.00
73151;BME280;61354;50.758;6.106;2023-04-30T03:34:15;99796.50;;;6.44;100.00
73151;BME280;61354;50.758;6.106;2023-04-30T03:36:41;99784.22;;;6.50;100.00
73151;BME280;61354;50.758;6.106;2023-04-30T03:39:06;99784.59;;;6.57;100.00
73151;BME280;61354;50.758;6.106;2023-04-30T03:41:34;99795.00;;;6.38;100.00
73151;BME280;61354;50.758;6.106;2023-04-30T03:44:00;99796.69;;;6.03;100.00
73151;BME280;61354;50.758;6.106;2023-04-30T03:46:25;99808.00;;;6.01;100.00
73151;BME280;61354;50.758;6.106;2023-04-30T03:48:51;99812.09;;;6.04;100.00
73151;BME280;61354;50.758;6.106;2023-04-30T03:51:18;99808.72;;;6.07;100.00
73151;BME280;61354;50.758;6.106;2023-04-30T03:53:44;99802.31;;;5.84;100.00
73151;BME280;61354;50.758;6.106;2023-04-30T03:56:10;99800.19;;;5.94;100.00
73151;BME280;61354;50.758;6.106;2023-04-30T03:58:36;99794.97;;;5.93;100.00
73151;BME280;61354;50.758;6.106;2023-04-30T04:01:03;99796.38;;;6.04;100.00
73151;BME280;61354;50.758;6.106;2023-04-30T04:03:29;99802.28;;;6.11;100.00
73151;BME280;61354;50.758;6.106;2023-04-30T04:05:54;99804.53;;;6.32;100.00
73151;BME280;61354;50.758;6.106;2023-04-30T04:08:20;99809.28;;;6.17;100.00
73151;BME280;61354;50.758;6.106;2023-04-30T04:10:46;99803.22;;;6.29;100.00
73151;BME280;61354;50.758;6.106;2023-04-30T04:13:11;99803.66;;;6.22;100.00
73151;BME280;61354;50.758;6.106;2023-04-30T04:15:37;99799.38;;;6.16;100.00
73151;BME280;61354;50.758;6.106;2023-04-30T04:18:02;99798.78;;;6.19;100.00
73151;BME280;61354;50.758;6.106;2023-04-30T04:20:28;99797.81;;;6.24;100.00
73151;BME280;61354;50.758;6.106;2023-04-30T04:22:54;99795.69;;;6.21;100.00
73151;BME280;61354;50.758;6.106;2023-04-30T04:25:21;99791.03;;;6.08;100.00
73151;BME280;61354;50.758;6.106;2023-04-30T04:27:49;99792.56;;;6.14;100.00
73151;BME280;61354;50.758;6.106;2023-04-30T04:30:14;99802.06;;;6.08;100.00
73151;BME280;61354;50.758;6.106;2023-04-30T04:32:41;99804.13;;;5.88;100.00
73151;BME280;61354;50.758;6.106;2023-04-30T04:35:14;99808.22;;;5.91;100.00
73151;BME280;61354;50.758;6.106;2023-04-30T04:37:40;99809.22;;;6.09;100.00
73151;BME280;61354;50.758;6.106;2023-04-30T04:40:07;99800.53;;;6.15;100.00
73151;BME280;61354;50.758;6.106;2023-04-30T04:42:33;99804.47;;;6.23;100.00
73151;BME280;61354;50.758;6.106;2023-04-30T04:44:58;99803.28;;;6.15;100.00
73151;BME280;61354;50.758;6.106;2023-04-30T04:47:24;99816.94;;;6.20;100.00
73151;BME280;61354;50.758;6.106;2023-04-30T04:49:50;99820.03;;;6.19;100.00
73151;BME280;61354;50.758;6.106;2023-04-30T04:52:16;99816.13;;;6.20;100.00
73151;BME280;61354;50.758;6.106;2023-04-30T04:54:41;99820.78;;;5.97;100.00
73151;BME280;61354;50.758;6.106;2023-04-30T04:57:07;99831.41;;;5.90;100.00
73151;BME280;61354;50.758;6.106;2023-04-30T04:59:32;99818.22;;;6.01;100.00
73151;BME280;61354;50.758;6.106;2023-04-30T05:01:58;99826.56;;;6.09;100.00
73151;BME280;61354;50.758;6.106;2023-04-30T05:04:23;99831.47;;;6.12;100.00
73151;BME280;61354;50.758;6.106;2023-04-30T05:06:49;99828.47;;;6.22;100.00
73151;BME280;61354;50.758;6.106;2023-04-30T05:09:14;99826.19;;;6.02;100.00
73151;BME280;61354;50.758;6.106;2023-04-30T05:11:40;99826.84;;;6.21;100.00
73151;BME280;61354;50.758;6.106;2023-04-30T05:14:06;99826.41;;;6.06;100.00
73151;BME280;61354;50.758;6.106;2023-04-30T05:16:34;99829.91;;;6.20;100.00
73151;BME280;61354;50.758;6.106;2023-04-30T05:19:00;99834.00;;;6.22;100.00
73151;BME280;61354;50.758;6.106;2023-04-30T05:21:25;99830.75;;;6.43;100.00
73151;BME280;61354;50.758;6.106;2023-04-30T05:23:54;99836.50;;;6.55;100.00
73151;BME280;61354;50.758;6.106;2023-04-30T05:26:20;99835.88;;;6.58;100.00
73151;BME280;61354;50.758;6.106;2023-04-30T05:28:47;99836.50;;;6.55;100.00
73151;BME280;61354;50.758;6.106;2023-04-30T05:31:13;99828.59;;;6.62;100.00
73151;BME280;61354;50.758;6.106;2023-04-30T05:33:39;99830.34;;;6.81;100.00
73151;BME280;61354;50.758;6.106;2023-04-30T05:36:05;99839.13;;;6.83;100.00
73151;BME280;61354;50.758;6.106;2023-04-30T05:38:30;99836.31;;;6.74;100.00
73151;BME280;61354;50.758;6.106;2023-04-30T05:40:56;99839.13;;;6.83;100.00
73151;BME280;61354;50.758;6.106;2023-04-30T05:43:22;99845.63;;;6.87;100.00
73151;BME280;61354;50.758;6.106;2023-04-30T05:45:47;99838.63;;;6.81;100.00
73151;BME280;61354;50.758;6.106;2023-04-30T05:48:13;99839.88;;;6.97;100.00
73151;BME280;61354;50.758;6.106;2023-04-30T05:50:38;99828.16;;;7.00;100.00
73151;BME280;61354;50.758;6.106;2023-04-30T05:53:04;99840.94;;;7.18;100.00
73151;BME280;61354;50.758;6.106;2023-04-30T05:55:30;99837.03;;;7.19;100.00
73151;BME280;61354;50.758;6.106;2023-04-30T05:57:55;99840.75;;;7.15;100.00
73151;BME280;61354;50.758;6.106;2023-04-30T06:00:21;99848.22;;;7.14;100.00
73151;BME280;61354;50.758;6.106;2023-04-30T06:02:46;99849.38;;;7.13;100.00
73151;BME280;61354;50.758;6.106;2023-04-30T06:05:12;99851.63;;;7.11;100.00
73151;BME280;61354;50.758;6.106;2023-04-30T06:07:38;99844.53;;;7.28;100.00
73151;BME280;61354;50.758;6.106;2023-04-30T06:10:03;99847.31;;;7.28;100.00
73151;BME280;61354;50.758;6.106;2023-04-30T06:12:29;99853.97;;;7.27;100.00
73151;BME280;61354;50.758;6.106;2023-04-30T06:14:55;99852.97;;;7.22;100.00
73151;BME280;61354;50.758;6.106;2023-04-30T06:17:21;99841.00;;;7.36;100.00
73151;BME280;61354;50.758;6.106;2023-04-30T06:19:47;99842.53;;;7.51;100.00
73151;BME280;61354;50.758;6.106;2023-04-30T06:22:12;99845.16;;;7.56;100.00
73151;BME280;61354;50.758;6.106;2023-04-30T06:24:38;99841.78;;;7.67;100.00
73151;BME280;61354;50.758;6.106;2023-04-30T06:27:04;99838.22;;;7.76;100.00
73151;BME280;61354;50.758;6.106;2023-04-30T06:29:29;99836.09;;;7.81;100.00
73151;BME280;61354;50.758;6.106;2023-04-30T06:31:55;99833.00;;;7.83;100.00
73151;BME280;61354;50.758;6.106;2023-04-30T06:34:21;99829.78;;;7.89;100.00
73151;BME280;61354;50.758;6.106;2023-04-30T06:36:47;99830.13;;;8.05;100.00
73151;BME280;61354;50.758;6.106;2023-04-30T06:39:14;99829.63;;;8.03;100.00
73151;BME280;61354;50.758;6.106;2023-04-30T06:41:40;99834.34;;;8.20;100.00
73151;BME280;61354;50.758;6.106;2023-04-30T06:44:07;99829.94;;;8.28;100.00
73151;BME280;61354;50.758;6.106;2023-04-30T06:46:33;99830.28;;;8.26;100.00
73151;BME280;61354;50.758;6.106;2023-04-30T06:48:59;99829.78;;;8.33;100.00
73151;BME280;61354;50.758;6.106;2023-04-30T06:51:25;99842.16;;;8.35;100.00
73151;BME280;61354;50.758;6.106;2023-04-30T06:53:51;99840.88;;;8.50;100.00
73151;BME280;61354;50.758;6.106;2023-04-30T06:56:17;99840.72;;;8.64;100.00
73151;BME280;61354;50.758;6.106;2023-04-30T06:58:42;99842.81;;;8.76;100.00
73151;BME280;61354;50.758;6.106;2023-04-30T07:01:08;99848.34;;;8.76;100.00
73151;BME280;61354;50.758;6.106;2023-04-30T07:03:34;99841.47;;;8.90;100.00
73151;BME280;61354;50.758;6.106;2023-04-30T07:05:59;99837.69;;;9.04;100.00
73151;BME280;61354;50.758;6.106;2023-04-30T07:08:25;99837.69;;;9.12;100.00
73151;BME280;61354;50.758;6.106;2023-04-30T07:10:51;99841.88;;;9.18;100.00
73151;BME280;61354;50.758;6.106;2023-04-30T07:13:16;99840.38;;;9.30;100.00
73151;BME280;61354;50.758;6.106;2023-04-30T07:15:42;99850.09;;;9.44;100.00
73151;BME280;61354;50.758;6.106;2023-04-30T07:18:08;99849.09;;;9.49;98.60
73151;BME280;61354;50.758;6.106;2023-04-30T07:20:34;99852.00;;;9.53;98.29
73151;BME280;61354;50.758;6.106;2023-04-30T07:23:00;99849.47;;;9.68;99.30
73151;BME280;61354;50.758;6.106;2023-04-30T07:25:25;99841.47;;;9.76;98.46
73151;BME280;61354;50.758;6.106;2023-04-30T07:27:51;99840.50;;;9.71;98.57
73151;BME280;61354;50.758;6.106;2023-04-30T07:30:19;99838.94;;;9.83;97.15
73151;BME280;61354;50.758;6.106;2023-04-30T07:32:46;99832.28;;;9.84;97.90
73151;BME280;61354;50.758;6.106;2023-04-30T07:35:12;99838.66;;;10.05;97.28
73151;BME280;61354;50.758;6.106;2023-04-30T07:37:39;99837.69;;;10.01;96.32
73151;BME280;61354;50.758;6.106;2023-04-30T07:40:05;99835.97;;;10.17;95.79
73151;BME280;61354;50.758;6.106;2023-04-30T07:42:31;99839.09;;;10.37;95.00
73151;BME280;61354;50.758;6.106;2023-04-30T07:44:57;99829.88;;;10.45;94.56
73151;BME280;61354;50.758;6.106;2023-04-30T07:47:23;99826.91;;;10.50;94.92
73151;BME280;61354;50.758;6.106;2023-04-30T07:49:49;99829.91;;;10.57;93.90
73151;BME280;61354;50.758;6.106;2023-04-30T07:52:15;99825.56;;;10.68;93.53
73151;BME280;61354;50.758;6.106;2023-04-30T07:54:41;99822.34;;;10.66;92.76
73151;BME280;61354;50.758;6.106;2023-04-30T07:57:07;99829.56;;;10.80;94.12
73151;BME280;61354;50.758;6.106;2023-04-30T07:59:32;99832.91;;;10.85;93.48
73151;BME280;61354;50.758;6.106;2023-04-30T08:01:58;99835.00;;;10.88;92.27
73151;BME280;61354;50.758;6.106;2023-04-30T08:04:24;99830.16;;;10.98;90.77
73151;BME280;61354;50.758;6.106;2023-04-30T08:06:50;99819.78;;;11.19;90.13
73151;BME280;61354;50.758;6.106;2023-04-30T08:09:15;99828.25;;;11.23;91.48
73151;BME280;61354;50.758;6.106;2023-04-30T08:11:41;99830.34;;;11.26;89.20
73151;BME280;61354;50.758;6.106;2023-04-30T08:14:06;99830.47;;;11.41;90.38
73151;BME280;61354;50.758;6.106;2023-04-30T08:16:32;99829.19;;;11.39;88.53
73151;BME280;61354;50.758;6.106;2023-04-30T08:18:58;99831.75;;;11.44;86.05
73151;BME280;61354;50.758;6.106;2023-04-30T08:21:24;99835.81;;;11.59;88.13
73151;BME280;61354;50.758;6.106;2023-04-30T08:23:53;99833.59;;;11.64;88.06
73151;BME280;61354;50.758;6.106;2023-04-30T08:26:18;99830.13;;;11.67;83.26
73151;BME280;61354;50.758;6.106;2023-04-30T08:28:44;99822.47;;;11.77;84.61
73151;BME280;61354;50.758;6.106;2023-04-30T08:31:10;99825.16;;;11.85;82.91
73151;BME280;61354;50.758;6.106;2023-04-30T08:33:36;99823.63;;;12.00;80.55
73151;BME280;61354;50.758;6.106;2023-04-30T08:36:02;99820.56;;;12.17;79.11
73151;BME280;61354;50.758;6.106;2023-04-30T08:38:27;99828.69;;;12.23;80.82
73151;BME280;61354;50.758;6.106;2023-04-30T08:41:08;99821.13;;;12.23;77.88
73151;BME280;61354;50.758;6.106;2023-04-30T08:43:36;99820.31;;;12.23;78.28
73151;BME280;61354;50.758;6.106;2023-04-30T08:46:02;99825.16;;;12.38;75.32
73151;BME280;61354;50.758;6.106;2023-04-30T08:48:28;99817.47;;;12.47;73.51
73151;BME280;61354;50.758;6.106;2023-04-30T08:50:54;99823.72;;;12.44;72.14
73151;BME280;61354;50.758;6.106;2023-04-30T08:53:20;99819.44;;;12.47;74.21
73151;BME280;61354;50.758;6.106;2023-04-30T08:55:46;99818.53;;;12.42;74.51
73151;BME280;61354;50.758;6.106;2023-04-30T08:58:12;99823.03;;;12.47;72.25
73151;BME280;61354;50.758;6.106;2023-04-30T09:00:39;99829.72;;;12.58;70.19
73151;BME280;61354;50.758;6.106;2023-04-30T09:03:06;99815.84;;;12.74;71.53
73151;BME280;61354;50.758;6.106;2023-04-30T09:05:32;99819.28;;;12.83;69.73
73151;BME280;61354;50.758;6.106;2023-04-30T09:07:58;99824.16;;;12.86;68.90
73151;BME280;61354;50.758;6.106;2023-04-30T09:10:24;99816.22;;;12.88;69.36
73151;BME280;61354;50.758;6.106;2023-04-30T09:13:04;99815.72;;;12.99;66.72
73151;BME280;61354;50.758;6.106;2023-04-30T09:15:31;99820.84;;;13.12;68.32
73151;BME280;61354;50.758;6.106;2023-04-30T09:18:13;99812.75;;;13.07;65.49
73151;BME280;61354;50.758;6.106;2023-04-30T09:21:00;99808.09;;;13.11;65.53
73151;BME280;61354;50.758;6.106;2023-04-30T09:23:26;99816.91;;;13.13;64.93
73151;BME280;61354;50.758;6.106;2023-04-30T09:25:52;99812.94;;;13.14;63.43
73151;BME280;61354;50.758;6.106;2023-04-30T09:28:18;99805.47;;;13.18;66.17
73151;BME280;61354;50.758;6.106;2023-04-30T09:30:49;99800.19;;;13.29;64.19
73151;BME280;61354;50.758;6.106;2023-04-30T09:33:15;99802.38;;;13.36;64.41
73151;BME280;61354;50.758;6.106;2023-04-30T09:35:41;99809.47;;;13.33;62.47
73151;BME280;61354;50.758;6.106;2023-04-30T09:38:07;99800.28;;;13.49;66.42
73151;BME280;61354;50.758;6.106;2023-04-30T09:40:39;99800.53;;;13.59;65.09
73151;BME280;61354;50.758;6.106;2023-04-30T09:43:08;99805.59;;;13.54;62.75
73151;BME280;61354;50.758;6.106;2023-04-30T09:45:44;99799.38;;;13.60;63.99
73151;BME280;61354;50.758;6.106;2023-04-30T09:48:25;99801.03;;;13.81;64.73
73151;BME280;61354;50.758;6.106;2023-04-30T09:50:54;99793.22;;;13.86;63.33
73151;BME280;61354;50.758;6.106;2023-04-30T09:53:19;99799.78;;;13.94;61.22
73151;BME280;61354;50.758;6.106;2023-04-30T09:55:48;99797.31;;;13.92;62.73
73151;BME280;61354;50.758;6.106;2023-04-30T09:58:14;99795.78;;;13.95;59.55
73151;BME280;61354;50.758;6.106;2023-04-30T10:00:41;99788.72;;;14.01;62.06
73151;BME280;61354;50.758;6.106;2023-04-30T10:03:09;99792.56;;;14.12;60.65
73151;BME280;61354;50.758;6.106;2023-04-30T10:05:45;99793.38;;;14.13;56.54
73151;BME280;61354;50.758;6.106;2023-04-30T10:11:27;99782.47;;;14.24;57.14
73151;BME280;61354;50.758;6.106;2023-04-30T10:14:02;99783.13;;;14.36;58.31
73151;BME280;61354;50.758;6.106;2023-04-30T10:19:10;99775.03;;;14.31;55.96
73151;BME280;61354;50.758;6.106;2023-04-30T10:21:39;99778.25;;;14.33;54.34
73151;BME280;61354;50.758;6.106;2023-04-30T10:24:05;99776.72;;;14.36;55.51
73151;BME280;61354;50.758;6.106;2023-04-30T10:26:31;99771.44;;;14.50;56.57
73151;BME280;61354;50.758;6.106;2023-04-30T10:28:58;99764.38;;;14.56;54.97
73151;BME280;61354;50.758;6.106;2023-04-30T10:31:25;99766.72;;;14.54;54.46
73151;BME280;61354;50.758;6.106;2023-04-30T10:34:13;99766.09;;;14.84;53.88
73151;BME280;61354;50.758;6.106;2023-04-30T10:39:10;99760.38;;;14.77;55.00
73151;BME280;61354;50.758;6.106;2023-04-30T10:41:37;99763.28;;;14.84;53.56
73151;BME280;61354;50.758;6.106;2023-04-30T10:44:03;99760.22;;;14.89;55.42
73151;BME280;61354;50.758;6.106;2023-04-30T10:46:34;99757.69;;;14.84;53.92
73151;BME280;61354;50.758;6.106;2023-04-30T10:49:00;99755.22;;;14.79;54.29
73151;BME280;61354;50.758;6.106;2023-04-30T10:51:47;99746.72;;;14.95;55.53
73151;BME280;61354;50.758;6.106;2023-04-30T10:54:23;99734.66;;;15.13;52.61
73151;BME280;61354;50.758;6.106;2023-04-30T10:56:50;99742.94;;;15.06;53.13
73151;BME280;61354;50.758;6.106;2023-04-30T10:59:16;99742.09;;;15.29;53.14
73151;BME280;61354;50.758;6.106;2023-04-30T11:01:59;99737.97;;;15.19;54.29
73151;BME280;61354;50.758;6.106;2023-04-30T11:04:26;99727.13;;;15.17;53.75
73151;BME280;61354;50.758;6.106;2023-04-30T11:09:19;99731.03;;;15.13;49.43
73151;BME280;61354;50.758;6.106;2023-04-30T11:11:45;99722.56;;;15.32;51.73
73151;BME280;61354;50.758;6.106;2023-04-30T11:14:12;99719.09;;;15.39;53.90
73151;BME280;61354;50.758;6.106;2023-04-30T11:16:48;99725.97;;;15.45;51.75
73151;BME280;61354;50.758;6.106;2023-04-30T11:19:14;99720.53;;;15.29;52.18
73151;BME280;61354;50.758;6.106;2023-04-30T11:21:41;99723.91;;;15.42;53.85
73151;BME280;61354;50.758;6.106;2023-04-30T11:24:06;99721.91;;;15.39;51.61
73151;BME280;61354;50.758;6.106;2023-04-30T11:27:25;99717.31;;;15.54;51.33
73151;BME280;61354;50.758;6.106;2023-04-30T11:29:43;99713.44;;;15.62;53.00
73151;BME280;61354;50.758;6.106;2023-04-30T11:32:11;99714.78;;;15.72;51.03
73151;BME280;61354;50.758;6.106;2023-04-30T11:34:37;99706.31;;;15.64;51.01
73151;BME280;61354;50.758;6.106;2023-04-30T11:37:02;99703.78;;;15.86;51.37
73151;BME280;61354;50.758;6.106;2023-04-30T11:39:28;99697.38;;;15.59;50.99
73151;BME280;61354;50.758;6.106;2023-04-30T11:41:56;99692.16;;;15.84;50.30
73151;BME280;61354;50.758;6.106;2023-04-30T11:44:25;99697.63;;;15.73;49.43
73151;BME280;61354;50.758;6.106;2023-04-30T11:46:50;99695.19;;;15.72;51.07
73151;BME280;61354;50.758;6.106;2023-04-30T11:49:16;99688.69;;;15.94;52.14
73151;BME280;61354;50.758;6.106;2023-04-30T11:51:42;99694.47;;;16.08;52.80
73151;BME280;61354;50.758;6.106;2023-04-30T11:54:13;99691.22;;;15.73;50.80
73151;BME280;61354;50.758;6.106;2023-04-30T11:56:38;99685.28;;;15.78;52.20
73151;BME280;61354;50.758;6.106;2023-04-30T11:59:09;99682.66;;;15.92;50.36
73151;BME280;61354;50.758;6.106;2023-04-30T12:01:35;99683.22;;;16.05;51.45
73151;BME280;61354;50.758;6.106;2023-04-30T12:04:04;99684.59;;;15.88;50.67
73151;BME280;61354;50.758;6.106;2023-04-30T12:06:31;99682.47;;;15.78;49.85
73151;BME280;61354;50.758;6.106;2023-04-30T12:08:58;99675.53;;;15.98;50.66
73151;BME280;61354;50.758;6.106;2023-04-30T12:11:30;99679.00;;;16.18;52.83
73151;BME280;61354;50.758;6.106;2023-04-30T12:14:07;99677.06;;;16.26;51.26
73151;BME280;61354;50.758;6.106;2023-04-30T12:16:48;99675.84;;;15.89;50.95
73151;BME280;61354;50.758;6.106;2023-04-30T12:19:15;99674.28;;;16.26;56.16
73151;BME280;61354;50.758;6.106;2023-04-30T12:21:42;99668.06;;;16.43;53.85
73151;BME280;61354;50.758;6.106;2023-04-30T12:24:17;99673.06;;;16.64;53.88
73151;BME280;61354;50.758;6.106;2023-04-30T12:26:43;99674.28;;;16.66;52.03
73151;BME280;61354;50.758;6.106;2023-04-30T12:29:10;99663.91;;;16.30;51.65
73151;BME280;61354;50.758;6.106;2023-04-30T12:31:37;99659.13;;;16.34;53.23
73151;BME280;61354;50.758;6.106;2023-04-30T12:34:07;99663.63;;;16.42;51.67
73151;BME280;61354;50.758;6.106;2023-04-30T12:36:34;99656.84;;;16.43;50.69
73151;BME280;61354;50.758;6.106;2023-04-30T12:39:04;99663.53;;;16.72;53.40
73151;BME280;61354;50.758;6.106;2023-04-30T12:41:35;99670.88;;;16.84;54.31
73151;BME280;61354;50.758;6.106;2023-04-30T12:46:46;99655.81;;;17.06;51.11
73151;BME280;61354;50.758;6.106;2023-04-30T12:49:21;99654.63;;;16.63;51.22
73151;BME280;61354;50.758;6.106;2023-04-30T12:51:48;99659.41;;;16.59;52.71
73151;BME280;61354;50.758;6.106;2023-04-30T12:54:13;99656.28;;;16.68;53.24
73151;BME280;61354;50.758;6.106;2023-04-30T12:57:04;99654.66;;;16.66;53.00
73151;BME280;61354;50.758;6.106;2023-04-30T12:59:36;99653.31;;;16.53;49.98
73151;BME280;61354;50.758;6.106;2023-04-30T13:02:10;99648.50;;;16.95;53.17
73151;BME280;61354;50.758;6.106;2023-04-30T13:04:37;99636.50;;;16.94;51.02
73151;BME280;61354;50.758;6.106;2023-04-30T13:07:03;99636.41;;;16.83;50.81
73151;BME280;61354;50.758;6.106;2023-04-30T13:09:31;99632.09;;;16.52;48.54
73151;BME280;61354;50.758;6.106;2023-04-30T13:11:57;99633.97;;;16.41;50.63
73151;BME280;61354;50.758;6.106;2023-04-30T13:14:22;99625.56;;;16.41;50.34
73151;BME280;61354;50.758;6.106;2023-04-30T13:16:48;99624.59;;;16.63;49.74
73151;BME280;61354;50.758;6.106;2023-04-30T13:19:14;99623.69;;;16.97;51.38
73151;BME280;61354;50.758;6.106;2023-04-30T13:21:40;99619.41;;;17.13;49.91
73151;BME280;61354;50.758;6.106;2023-04-30T13:24:08;99619.56;;;17.38;50.57
73151;BME280;61354;50.758;6.106;2023-04-30T13:26:34;99615.91;;;17.31;47.63
73151;BME280;61354;50.758;6.106;2023-04-30T13:28:59;99612.78;;;17.43;49.51